Foxborough, Massachusetts
Current Conditions -  °F | °C
As of 10:53 PM on Tuesday 21 Oct 2014 (Local Time) from KOWD Reporting Station
Overcast Overcast  
Wind Chill: 56°   Ceiling: 700
Heat Index: 56°   Visibility: 10mi
Dew Point: 54°   Wind: 9mph
Humidity: 93%   Direction: 350°N
Pressure: 29.97"   Gusts: NA
Location:  42.0631°N, 71.2456°W
Report Text: KOWD 220253Z 35008KT 10SM OVC007 13/12 A2997 RMK AO2 CIG 006V011 SLP150 T01330122 51016
Loading
Personal Weather Stations






























Interactive Weather Map
Tropical Storm Tracking
New forecast layout! Learn more

10-Day Weather Forecast

Advertisements
Track Severe Weather on mobile